EKTB weather

Tórshavn/Bodanes Heliport
Tórshavn/Bodanes, Faroe Islands

Public forecast

Using degrees Celsius for public forecast. Weather courtesy of forecast.io.

METAR (pilot weather report)

Closest report is Vagar Airport, 14.8 nm (27.5 km) W. Retrieved 2019/07/23 06:20 UTC (0 seconds ago):

EKVG 230620Z AUTO 13007KT 9999 OVC046/// 11/11 Q1006

TAF (pilot weather forecast)

Forecast is more than 12 hours old.

Closest forecast is Vagar Airport, 14.8 nm (27.5 km) W. Retrieved 2017/08/20 00:36 UTC (2 years ago):

TAF TAF EKVG 200034Z 2000/2012 33018KT 9000 FEW007 TEMPO 2003/2006 34025G35KT 4000 DZRA BKN006